Madison, WI (53705)

11:39 PM CST on February 09, 2016 (GMT -0600)
Hill Farms Neighborhood | | Change Station
CLOSE
Current Station
Personal Weather Station
Location: Madison, WI
Elevation: 930 ft
Nearby Weather Stations

Elev 930 ft 43.06 °N, 89.46 °W | Updated 36 seconds ago

Overcast
Overcast
11.2 °F
Feels Like 3 °F
N
5.0
Wind Variable Wind from NW
Gusts 7.0 mph

Today
High -- | Low -- °F
--% Chance of Precip.
Yesterday
High -- | Low -- °F
Precip. -- in
Pressure 29.99 in
Visibility 10.0 miles
Clouds Overcast 2800 ft
Windchill 3 °F
Dew Point 6 °F
Humidity 77%
Rainfall Not available.
Snow Depth Not available.
7:04 AM 5:20 PM
Waxing Crescent, 4% visible
METAR KC29 100515Z AUTO 30009KT 10SM OVC028 M11/M17 A2999 RMK AO1 T11151166
Pressure 29.99 in
Visibility 10.0 miles
Clouds Overcast 2800 ft
Windchill 3 °F
Dew Point 6 °F
Humidity 77%
Rainfall Not available.
Snow Depth Not available.
7:04 AM 5:20 PM
Waxing Crescent, 4% visible
METAR KC29 100515Z AUTO 30009KT 10SM OVC028 M11/M17 A2999 RMK AO1 T11151166

10-Day Weather Forecast

Almanac

Astronomy

Feb. 09, 2016 Rise Set
Actual Time
Civil Twilight
Nautical Twilight
Astronomical Twilight
Moon
Length of Visible Light
Length of Day
Tomorrow will be .
, % of the Moon is Illuminated

Today's Extremes

State Highs State Lows

Community

WunderPhotos

Upload Photos

1,891,823 photos uploaded!

WunderBlog® & News

Nearby

Air Quality

  Air Quality AQ Index Pollutant
Not available.

Snow Depth

Station Depth Elevation

Earthquake Activity

City Distance Mag. Time & Date
Minimum magnitude displayed is 2.5.

Coastal Water Temperatures

Place Temperature

Stations

Nearby Weather Stations

Station Location Temp. Windchill Dew Point Humidity Wind Precip. Elev Updated Type
                   

Watches & Warnings

There are currently no watches in effect.